Time;durP1;ratioP1;P1;durP2;ratioP2;P2;SDS_P1;SDS_P2;PMS_P1;PMS_P2;Temp;Humidity;BMP_temperature;BMP_pressure;BME280_temperature;BME280_humidity;BME280_pressure;Samples;Min_cycle;Max_cycle;Signal;HPM_P1;HPM_P2
2022/01/04 00:02:05;;;;;;;;;;;;;;;10.76;70.70;99946.34;5148007;27;55527;-79
2022/01/04 00:04:30;;;;;;;;;;;;;;;10.79;71.21;99941.06;5144577;27;55817;-79
2022/01/04 00:06:58;;;;;;;;;;;;;;;10.80;70.34;99927.25;5140424;27;51155;-79
2022/01/04 00:09:23;;;;;;;;;;;;;;;10.84;70.72;99933.94;5141139;27;27148;-78
2022/01/04 00:14:19;;;;;;;;;;;;;;;10.89;71.38;99925.13;5138909;27;26972;-77
2022/01/04 00:16:44;;;;;;;;;;;;;;;10.89;70.78;99916.53;5139901;27;55186;-78
2022/01/04 00:19:10;;;;;;;;;;;;;;;10.90;70.82;99913.03;5140487;27;26827;-77
2022/01/04 00:21:35;;;;;;;;;;;;;;;10.91;71.07;99910.38;5138911;27;26726;-77
2022/01/04 00:24:01;;;;;;;;;;;;;;;10.93;70.76;99902.59;5138505;27;26914;-77
2022/01/04 00:26:26;;;;;;;;;;;;;;;10.96;70.62;99902.44;5139027;27;26732;-77
2022/01/04 00:28:51;;;;;;;;;;;;;;;10.98;70.32;99900.66;5139254;27;26823;-77
2022/01/04 00:31:16;;;;;;;;;;;;;;;10.98;70.73;99900.66;5137745;27;54885;-77
2022/01/04 00:33:42;;;;;;;;;;;;;;;11.02;71.00;99894.47;5137698;27;56474;-77
2022/01/04 00:36:07;;;;;;;;;;;;;;;11.04;71.12;99883.16;5139075;27;46933;-77
2022/01/04 00:38:32;;;;;;;;;;;;;;;11.06;71.03;99877.91;5138651;27;26891;-77
2022/01/04 00:40:57;;;;;;;;;;;;;;;11.10;71.24;99877.72;5138291;27;26784;-77
2022/01/04 00:43:23;;;;;;;;;;;;;;;11.11;70.89;99865.63;5139000;27;51578;-77
2022/01/04 00:45:49;;;;;;;;;;;;;;;11.12;70.28;99862.16;5138717;27;39204;-78
2022/01/04 00:50:39;;;;;;;;;;;;;;;11.18;70.55;99855.88;5137053;27;26904;-78
2022/01/04 00:53:06;;;;;;;;;;;;;;;11.21;70.53;99846.25;5139069;27;27397;-78
2022/01/04 00:55:31;;;;;;;;;;;;;;;11.24;70.35;99851.31;5138516;27;26994;-77
2022/01/04 00:57:57;;;;;;;;;;;;;;;11.24;70.71;99840.97;5138431;27;27524;-77
2022/01/04 01:00:22;;;;;;;;;;;;;;;11.24;70.44;99840.97;5138718;27;26782;-77
2022/01/04 01:02:47;;;;;;;;;;;;;;;11.22;70.35;99837.59;5138567;27;26882;-77
2022/01/04 01:05:13;;;;;;;;;;;;;;;11.19;70.37;99832.56;5140812;27;26936;-78
2022/01/04 01:07:38;;;;;;;;;;;;;;;11.13;70.78;99827.66;5140714;27;27402;-79
2022/01/04 01:12:49;;;;;;;;;;;;;;;11.11;70.76;99813.94;5139428;27;26810;-79
2022/01/04 01:15:14;;;;;;;;;;;;;;;11.11;69.61;99811.38;5139151;27;34591;-78
2022/01/04 01:17:40;;;;;;;;;;;;;;;11.11;70.10;99803.63;5138877;27;26862;-78
2022/01/04 01:20:06;;;;;;;;;;;;;;;11.13;70.92;99799.22;5140988;27;26764;-78
2022/01/04 01:22:31;;;;;;;;;;;;;;;11.14;70.35;99803.47;5141508;27;26738;-77
2022/01/04 01:24:57;;;;;;;;;;;;;;;11.16;70.18;99801.69;5140391;27;26802;-78
2022/01/04 01:27:22;;;;;;;;;;;;;;;11.17;70.74;99803.38;5137934;27;57015;-78
2022/01/04 01:29:47;;;;;;;;;;;;;;;11.20;70.39;99792.91;5139860;27;36129;-77
2022/01/04 01:32:12;;;;;;;;;;;;;;;11.23;71.00;99785.00;5148560;27;29681;-78
2022/01/04 01:34:37;;;;;;;;;;;;;;;11.24;70.46;99786.69;5150622;27;26350;-77
2022/01/04 01:37:03;;;;;;;;;;;;;;;11.25;71.01;99775.41;5142508;27;56952;-78
2022/01/04 01:39:28;;;;;;;;;;;;;;;11.27;70.37;99773.63;5145021;27;26980;-78
2022/01/04 01:41:53;;;;;;;;;;;;;;;11.27;70.78;99778.78;5145208;27;27157;-78
2022/01/04 01:44:19;;;;;;;;;;;;;;;11.28;70.89;99770.13;5142278;27;27076;-79
2022/01/04 01:46:44;;;;;;;;;;;;;;;11.30;70.28;99772.63;5138990;27;26811;-79
2022/01/04 01:49:10;;;;;;;;;;;;;;;11.28;70.95;99767.56;5139975;27;33951;-78
2022/01/04 01:51:35;;;;;;;;;;;;;;;11.29;70.94;99755.44;5144105;27;34585;-78
2022/01/04 01:54:00;;;;;;;;;;;;;;;11.31;70.30;99754.47;5144082;27;41201;-78
2022/01/04 01:56:26;;;;;;;;;;;;;;;11.33;70.19;99752.66;5145250;27;27052;-79
2022/01/04 01:58:51;;;;;;;;;;;;;;;11.34;70.66;99754.34;5145111;27;26779;-79
2022/01/04 02:01:16;;;;;;;;;;;;;;;11.39;70.47;99761.91;5137601;27;55658;-79
2022/01/04 02:03:42;;;;;;;;;;;;;;;11.39;70.56;99757.56;5139573;27;54904;-79
2022/01/04 02:06:07;;;;;;;;;;;;;;;11.38;70.38;99755.88;5138336;27;56257;-79
2022/01/04 02:08:32;;;;;;;;;;;;;;;11.38;70.78;99755.88;5138635;27;26982;-80
2022/01/04 02:10:58;;;;;;;;;;;;;;;11.40;70.64;99743.72;5141310;27;26902;-78
2022/01/04 02:13:24;;;;;;;;;;;;;;;11.43;70.13;99738.44;5140981;27;27126;-79
2022/01/04 02:15:50;;;;;;;;;;;;;;;11.44;70.13;99732.31;5141864;27;27350;-78
2022/01/04 02:18:15;;;;;;;;;;;;;;;11.45;70.14;99736.59;5142253;27;26616;-79
2022/01/04 02:20:40;;;;;;;;;;;;;;;11.45;70.59;99731.44;5137157;27;33212;-77
2022/01/04 02:23:05;;;;;;;;;;;;;;;11.44;71.17;99724.56;5136248;27;51832;-77
2022/01/04 02:25:30;;;;;;;;;;;;;;;11.42;70.54;99718.63;5136652;27;47444;-77
2022/01/04 02:27:56;;;;;;;;;;;;;;;11.40;70.98;99717.00;5136074;27;54099;-77
2022/01/04 02:30:21;;;;;;;;;;;;;;;11.39;70.44;99716.19;5137182;27;26807;-77
2022/01/04 02:32:47;;;;;;;;;;;;;;;11.40;70.09;99707.50;5137300;27;26752;-77
2022/01/04 02:35:13;;;;;;;;;;;;;;;11.41;70.30;99709.19;5137793;27;27052;-78
2022/01/04 02:37:38;;;;;;;;;;;;;;;11.44;69.87;99709.06;5137335;27;26944;-78
2022/01/04 02:40:04;;;;;;;;;;;;;;;11.45;70.41;99702.13;5137480;27;27224;-78
2022/01/04 02:42:29;;;;;;;;;;;;;;;11.44;70.78;99697.88;5137209;27;26791;-78
2022/01/04 02:44:54;;;;;;;;;;;;;;;11.43;71.08;99694.47;5137747;27;26898;-78
2022/01/04 02:47:19;;;;;;;;;;;;;;;11.44;70.02;99688.38;5137514;27;26940;-78
2022/01/04 02:49:45;;;;;;;;;;;;;;;11.43;70.83;99686.72;5137133;27;26832;-77
2022/01/04 02:52:11;;;;;;;;;;;;;;;11.42;70.26;99690.19;5137417;27;26886;-77
2022/01/04 02:54:36;;;;;;;;;;;;;;;11.42;70.40;99690.19;5137593;27;26803;-78
2022/01/04 02:57:01;;;;;;;;;;;;;;;11.43;70.51;99683.28;5137759;27;28789;-78
2022/01/04 02:59:26;;;;;;;;;;;;;;;11.43;70.02;99681.53;5139053;27;26985;-78
2022/01/04 03:01:52;;;;;;;;;;;;;;;11.43;70.71;99676.38;5137656;27;26926;-78
2022/01/04 03:04:17;;;;;;;;;;;;;;;11.42;70.69;99674.69;5140879;27;26831;-78
2022/01/04 03:06:42;;;;;;;;;;;;;;;11.40;71.16;99676.50;5140948;27;26951;-78
2022/01/04 03:09:08;;;;;;;;;;;;;;;11.40;70.67;99676.50;5141935;27;40735;-77
2022/01/04 03:11:33;;;;;;;;;;;;;;;11.34;70.70;99679.38;5149222;27;27067;-78
2022/01/04 03:13:59;;;;;;;;;;;;;;;11.32;69.95;99668.25;5147402;27;27805;-76
2022/01/04 03:16:24;;;;;;;;;;;;;;;11.32;71.00;99657.91;5141172;27;26967;-76
2022/01/04 03:19:03;;;;;;;;;;;;;;;;;;;;;
2022/01/04 03:21:27;;;;;;;;;;;;;;;11.32;70.41;99655.31;5148412;27;26953;-77
2022/01/04 03:23:52;;;;;;;;;;;;;;;11.31;70.12;99651.09;5147123;27;40302;-79
2022/01/04 03:26:17;;;;;;;;;;;;;;;11.30;70.52;99654.56;5146610;27;26914;-79
2022/01/04 03:28:42;;;;;;;;;;;;;;;11.27;70.77;99644.38;5153057;27;26956;-80
2022/01/04 03:31:08;;;;;;;;;;;;;;;11.29;70.26;99641.69;5122759;27;26927;-77
2022/01/04 03:33:36;;;;;;;;;;;;;;;11.30;69.75;99626.13;5140706;27;28120;-80
2022/01/04 03:36:02;;;;;;;;;;;;;;;11.31;70.81;99625.22;5140902;27;26995;-80
2022/01/04 03:38:27;;;;;;;;;;;;;;;11.31;70.04;99614.06;5140816;27;27063;-78
2022/01/04 03:40:52;;;;;;;;;;;;;;;11.30;70.42;99612.38;5140778;27;26819;-78
2022/01/04 03:43:17;;;;;;;;;;;;;;;11.29;70.71;99605.50;5139949;27;57416;-77
2022/01/04 03:45:43;;;;;;;;;;;;;;;11.27;70.05;99605.59;5140435;27;31042;-78
2022/01/04 03:48:08;;;;;;;;;;;;;;;11.26;70.23;99601.34;5145396;27;55566;-78
2022/01/04 03:50:33;;;;;;;;;;;;;;;11.23;70.47;99593.72;5140799;27;55410;-77
2022/01/04 03:52:58;;;;;;;;;;;;;;;11.19;69.73;99589.63;5140153;27;27445;-77
2022/01/04 03:55:23;;;;;;;;;;;;;;;11.14;70.20;99591.56;5138504;27;54379;-77
2022/01/04 03:57:48;;;;;;;;;;;;;;;11.08;70.74;99581.53;5139430;27;27759;-77
2022/01/04 04:00:14;;;;;;;;;;;;;;;11.06;70.58;99573.00;5138775;27;54048;-77
2022/01/04 04:02:39;;;;;;;;;;;;;;;11.03;70.41;99563.66;5139969;27;27536;-77
2022/01/04 04:05:05;;;;;;;;;;;;;;;11.02;71.01;99555.97;5141675;27;26877;-77
2022/01/04 04:07:30;;;;;;;;;;;;;;;10.99;70.96;99545.78;5142620;27;27007;-77
2022/01/04 04:09:55;;;;;;;;;;;;;;;11.01;70.78;99543.97;5140286;27;54735;-78
2022/01/04 04:12:21;;;;;;;;;;;;;;;11.00;70.75;99544.88;5139850;27;57457;-78
2022/01/04 04:14:46;;;;;;;;;;;;;;;10.98;71.14;99538.94;5139249;27;26826;-78
2022/01/04 04:17:11;;;;;;;;;;;;;;;10.96;70.45;99528.66;5139698;27;26991;-78
2022/01/04 04:19:36;;;;;;;;;;;;;;;10.96;70.22;99525.25;5140994;27;26777;-77
2022/01/04 04:22:02;;;;;;;;;;;;;;;10.98;71.00;99523.44;5141758;27;26573;-78
2022/01/04 04:24:27;;;;;;;;;;;;;;;10.97;70.88;99524.34;5141368;27;26901;-78
2022/01/04 04:26:52;;;;;;;;;;;;;;;10.98;71.03;99518.28;5140116;27;55580;-78
2022/01/04 04:29:17;;;;;;;;;;;;;;;10.98;70.35;99515.69;5140789;27;31855;-78
2022/01/04 04:31:42;;;;;;;;;;;;;;;10.98;70.88;99507.94;5142959;27;56683;-78
2022/01/04 04:34:08;;;;;;;;;;;;;;;10.96;70.12;99505.41;5142803;27;30260;-77
2022/01/04 04:36:33;;;;;;;;;;;;;;;10.94;71.05;99511.59;5139833;27;57283;-78
2022/01/04 04:39:00;;;;;;;;;;;;;;;10.91;70.10;99511.72;5139096;27;54565;-77
2022/01/04 04:41:25;;;;;;;;;;;;;;;10.89;70.77;99513.53;5139556;27;26931;-77
2022/01/04 04:43:54;;;;;;;;;;;;;;;10.85;70.52;99512.00;5138234;27;55040;-78
2022/01/04 04:46:19;;;;;;;;;;;;;;;10.85;70.26;99504.25;5138928;27;27021;-78
2022/01/04 04:48:44;;;;;;;;;;;;;;;10.85;70.95;99497.34;5139266;27;26888;-78
2022/01/04 04:51:09;;;;;;;;;;;;;;;10.86;70.37;99493.03;5138051;27;56981;-78
2022/01/04 04:53:35;;;;;;;;;;;;;;;10.86;70.26;99498.19;5139091;27;33344;-78
2022/01/04 04:56:00;;;;;;;;;;;;;;;10.88;70.70;99496.34;5120757;27;27076;-78
2022/01/04 04:58:25;;;;;;;;;;;;;;;10.90;71.08;99499.72;5138134;27;53711;-78
2022/01/04 05:00:50;;;;;;;;;;;;;;;10.89;71.09;99495.44;5138302;27;52552;-78
2022/01/04 05:03:15;;;;;;;;;;;;;;;10.86;70.37;99490.44;5139155;27;26830;-78
2022/01/04 05:05:40;;;;;;;;;;;;;;;10.82;70.81;99476.00;5137593;27;57187;-77
2022/01/04 05:08:06;;;;;;;;;;;;;;;10.83;70.39;99481.09;5138407;27;26817;-77
2022/01/04 05:10:31;;;;;;;;;;;;;;;10.86;71.32;99485.28;5137836;27;57079;-78
2022/01/04 05:12:57;;;;;;;;;;;;;;;10.87;70.65;99479.19;5139090;27;26880;-78
2022/01/04 05:15:22;;;;;;;;;;;;;;;10.86;71.25;99480.94;5138422;27;27005;-77
2022/01/04 05:17:47;;;;;;;;;;;;;;;10.87;71.20;99479.19;5138178;27;26943;-77
2022/01/04 05:20:12;;;;;;;;;;;;;;;10.90;71.27;99484.22;5138358;27;27341;-77
2022/01/04 05:22:38;;;;;;;;;;;;;;;10.90;70.95;99479.06;5138456;27;26802;-78
2022/01/04 05:25:03;;;;;;;;;;;;;;;10.93;70.95;99478.91;5136710;27;57021;-77
2022/01/04 05:27:28;;;;;;;;;;;;;;;10.93;70.95;99473.72;5138415;27;26763;-77
2022/01/04 05:29:54;;;;;;;;;;;;;;;10.93;70.48;99471.16;5137582;27;27076;-77
2022/01/04 05:32:19;;;;;;;;;;;;;;;10.91;70.87;99475.56;5137657;27;27099;-77
2022/01/04 05:34:44;;;;;;;;;;;;;;;10.87;70.03;99468.88;5136805;27;56500;-77
2022/01/04 05:37:09;;;;;;;;;;;;;;;10.84;70.49;99469.00;5137376;27;43358;-78
2022/01/04 05:39:34;;;;;;;;;;;;;;;10.82;70.56;99470.81;5137794;27;47250;-76
2022/01/04 05:41:59;;;;;;;;;;;;;;;10.83;70.63;99472.50;5136803;27;54866;-77
2022/01/04 05:44:25;;;;;;;;;;;;;;;10.83;71.15;99451.84;5139205;27;51719;-79
2022/01/04 05:46:50;;;;;;;;;;;;;;;10.84;70.72;99448.31;5144426;27;43287;-78
2022/01/04 05:49:15;;;;;;;;;;;;;;;10.86;70.21;99438.78;5138407;27;26985;-78
2022/01/04 05:51:41;;;;;;;;;;;;;;;10.84;69.80;99433.66;5137554;27;49097;-77
2022/01/04 05:54:06;;;;;;;;;;;;;;;10.84;70.10;99435.41;5138061;27;27084;-78
2022/01/04 05:56:31;;;;;;;;;;;;;;;10.82;70.26;99434.66;5137711;27;35624;-77
2022/01/04 05:58:57;;;;;;;;;;;;;;;10.80;70.80;99431.34;5138414;27;27496;-79
2022/01/04 06:01:22;;;;;;;;;;;;;;;10.76;70.66;99432.38;5140901;27;26881;-76
2022/01/04 06:03:50;;;;;;;;;;;;;;;10.75;70.85;99422.97;5140929;27;27121;-80
2022/01/04 06:06:15;;;;;;;;;;;;;;;10.74;70.73;99421.28;5139553;27;26869;-80
2022/01/04 06:08:40;;;;;;;;;;;;;;;10.77;70.89;99410.78;5137871;27;57371;-79
2022/01/04 06:11:08;;;;;;;;;;;;;;;10.79;70.45;99409.00;5138455;27;26832;-79
2022/01/04 06:16:25;;;;;;;;;;;;;;;10.75;70.06;99402.31;5056209;28;26794;-78
2022/01/04 06:18:50;;;;;;;;;;;;;;;10.72;70.74;99397.28;5056375;28;26826;-78
2022/01/04 06:21:15;;;;;;;;;;;;;;;10.70;70.62;99399.09;5055698;28;54166;-78
2022/01/04 06:23:40;;;;;;;;;;;;;;;10.68;70.50;99397.41;5056830;28;33756;-78
2022/01/04 06:26:06;;;;;;;;;;;;;;;10.68;70.54;99385.44;5056132;28;48113;-78
2022/01/04 06:28:32;;;;;;;;;;;;;;;10.65;69.94;99392.41;5057300;28;26984;-78
2022/01/04 06:30:57;;;;;;;;;;;;;;;10.64;70.37;99401.06;5057236;28;27016;-78
2022/01/04 06:33:23;;;;;;;;;;;;;;;10.61;71.17;99413.25;5056857;28;26920;-78
2022/01/04 06:35:48;;;;;;;;;;;;;;;10.54;70.60;99415.31;5060907;28;26971;-78
2022/01/04 06:38:14;;;;;;;;;;;;;;;10.52;70.88;99411.97;5069637;28;27020;-78
2022/01/04 06:40:39;;;;;;;;;;;;;;;10.51;70.54;99418.03;5063348;28;26897;-78
2022/01/04 06:43:04;;;;;;;;;;;;;;;10.52;70.92;99417.13;5044426;28;27466;-79
2022/01/04 06:45:30;;;;;;;;;;;;;;;10.52;71.20;99417.13;5060585;28;54674;-79
2022/01/04 06:47:55;;;;;;;;;;;;;;;10.52;70.98;99417.13;5060516;28;26949;-79
2022/01/04 06:50:20;;;;;;;;;;;;;;;10.54;71.46;99409.31;5062244;28;26596;-79
2022/01/04 06:52:46;;;;;;;;;;;;;;;10.55;70.74;99401.50;5086723;27;56234;-79
2022/01/04 06:55:11;;;;;;;;;;;;;;;10.58;71.67;99395.34;5144551;27;54307;-78
2022/01/04 06:57:36;;;;;;;;;;;;;;;10.61;70.53;99393.44;5145721;27;26973;-78
2022/01/04 07:00:03;;;;;;;;;;;;;;;10.64;70.85;99390.75;5146704;27;27037;-78
2022/01/04 07:02:28;;;;;;;;;;;;;;;10.64;71.26;99390.75;5145583;27;27728;-79
2022/01/04 07:04:53;;;;;;;;;;;;;;;10.62;70.59;99392.56;5142330;27;54325;-79
2022/01/04 07:07:18;;;;;;;;;;;;;;;10.52;70.94;99365.50;5141992;27;27031;-79
2022/01/04 07:09:44;;;;;;;;;;;;;;;10.62;71.32;99381.38;5141442;27;26809;-79
2022/01/04 07:12:09;;;;;;;;;;;;;;;10.60;70.99;99373.72;5141641;27;36487;-79
2022/01/04 07:14:35;;;;;;;;;;;;;;;10.61;70.46;99370.22;5141626;27;26666;-79
2022/01/04 07:17:00;;;;;;;;;;;;;;;10.61;70.23;99359.88;5141477;27;34734;-80
2022/01/04 07:19:25;;;;;;;;;;;;;;;10.61;70.31;99344.41;5143503;27;48310;-78
2022/01/04 07:21:51;;;;;;;;;;;;;;;10.62;70.58;99350.41;5144116;27;26731;-79
2022/01/04 07:24:16;;;;;;;;;;;;;;;10.60;70.32;99347.91;5142837;27;26891;-77
2022/01/04 07:26:41;;;;;;;;;;;;;;;10.60;70.21;99354.81;5142392;27;48327;-78
2022/01/04 07:29:06;;;;;;;;;;;;;;;10.58;70.60;99354.88;5142712;27;30994;-78
2022/01/04 07:31:32;;;;;;;;;;;;;;;10.58;70.55;99347.13;5142679;27;27119;-77
2022/01/04 07:33:58;;;;;;;;;;;;;;;10.56;70.39;99351.53;5143276;27;26823;-78
2022/01/04 07:36:23;;;;;;;;;;;;;;;10.57;70.98;99353.19;5140925;27;26790;-78
2022/01/04 07:38:48;;;;;;;;;;;;;;;10.57;71.12;99337.72;5141168;27;26853;-77
2022/01/04 07:41:13;;;;;;;;;;;;;;;10.56;70.84;99330.91;5141516;27;56319;-78
2022/01/04 07:43:39;;;;;;;;;;;;;;;10.58;71.00;99323.91;5141400;27;49567;-78
2022/01/04 07:46:04;;;;;;;;;;;;;;;10.61;71.31;99323.75;5141152;27;26884;-78
2022/01/04 07:48:29;;;;;;;;;;;;;;;10.63;70.90;99321.94;5140557;27;27015;-79
2022/01/04 07:50:55;;;;;;;;;;;;;;;10.63;71.81;99342.59;5142591;27;26855;-77
2022/01/04 07:53:22;;;;;;;;;;;;;;;10.64;71.41;99339.09;5142541;27;26872;-78
2022/01/04 07:55:47;;;;;;;;;;;;;;;10.65;70.96;99335.59;5141934;27;26966;-78
2022/01/04 07:58:12;;;;;;;;;;;;;;;10.65;71.41;99345.91;5141814;27;27055;-78
2022/01/04 08:00:37;;;;;;;;;;;;;;;10.63;70.82;99352.91;5141545;27;55194;-77
2022/01/04 08:03:06;;;;;;;;;;;;;;;10.65;71.32;99343.34;5141499;27;54904;-77
2022/01/04 08:05:31;;;;;;;;;;;;;;;10.68;71.08;99350.94;5142499;27;26719;-77
2022/01/04 08:07:57;;;;;;;;;;;;;;;10.68;71.12;99340.59;5142063;27;41782;-77
2022/01/04 08:10:22;;;;;;;;;;;;;;;10.72;71.70;99335.31;5141481;27;56599;-78
2022/01/04 08:12:47;;;;;;;;;;;;;;;10.74;71.15;99328.31;5139784;27;55136;-78
2022/01/04 08:15:12;;;;;;;;;;;;;;;10.76;71.48;99322.16;5142362;27;26735;-78
2022/01/04 08:17:38;;;;;;;;;;;;;;;10.78;70.94;99324.66;5141514;27;26949;-79
2022/01/04 08:20:05;;;;;;;;;;;;;;;10.81;71.25;99334.84;5140806;27;26829;-78
2022/01/04 08:22:33;;;;;;;;;;;;;;;10.79;71.33;99326.34;5141102;27;26932;-79
2022/01/04 08:25:01;;;;;;;;;;;;;;;10.80;71.14;99322.88;5144330;27;26865;-78
2022/01/04 08:27:26;;;;;;;;;;;;;;;10.80;71.02;99322.88;5147671;27;26952;-78
2022/01/04 08:29:52;;;;;;;;;;;;;;;10.81;71.85;99324.50;5144633;27;26776;-77
2022/01/04 08:32:17;;;;;;;;;;;;;;;10.80;70.75;99321.09;5141860;27;26784;-78
2022/01/04 08:34:42;;;;;;;;;;;;;;;10.86;71.62;99327.72;5141080;27;48052;-79
2022/01/04 08:37:07;;;;;;;;;;;;;;;10.86;70.38;99328.56;5139297;27;54173;-78
2022/01/04 08:39:33;;;;;;;;;;;;;;;10.87;71.01;99329.41;5145376;27;35717;-78
2022/01/04 08:42:01;;;;;;;;;;;;;;;10.89;71.69;99320.66;5142297;27;26873;-77
2022/01/04 08:44:27;;;;;;;;;;;;;;;10.94;71.55;99325.59;5139480;27;26808;-77
2022/01/04 08:46:52;;;;;;;;;;;;;;;10.96;70.52;99318.59;5139101;27;26976;-77
2022/01/04 08:49:17;;;;;;;;;;;;;;;10.96;71.40;99322.00;5138684;27;26881;-77
2022/01/04 08:51:43;;;;;;;;;;;;;;;10.98;71.50;99311.59;5138666;27;26916;-77
2022/01/04 08:54:08;;;;;;;;;;;;;;;10.99;71.12;99302.91;5138340;27;40477;-78
2022/01/04 08:56:33;;;;;;;;;;;;;;;10.99;70.62;99313.25;5139212;27;26792;-78
2022/01/04 08:58:58;;;;;;;;;;;;;;;11.01;71.02;99316.63;5138094;27;39756;-78
2022/01/04 09:01:24;;;;;;;;;;;;;;;11.01;71.17;99316.63;5137609;27;26818;-78
2022/01/04 09:03:49;;;;;;;;;;;;;;;11.03;70.84;99319.94;5138586;27;27879;-77
2022/01/04 09:06:15;;;;;;;;;;;;;;;11.05;70.98;99328.47;5139168;27;26983;-77
2022/01/04 09:08:40;;;;;;;;;;;;;;;11.06;70.40;99324.94;5138393;27;26923;-78
2022/01/04 09:11:05;;;;;;;;;;;;;;;11.03;71.22;99325.94;5139085;27;26936;-78
2022/01/04 09:13:36;;;;;;;;;;;;;;;11.01;70.94;99332.13;5138258;27;51848;-78
2022/01/04 09:18:43;;;;;;;;;;;;;;;10.99;70.58;99336.50;5138521;27;27452;-78
2022/01/04 09:21:09;;;;;;;;;;;;;;;10.99;71.23;99345.09;5138750;27;26766;-78
2022/01/04 09:23:35;;;;;;;;;;;;;;;11.00;71.13;99351.94;5138608;27;27438;-78
2022/01/04 09:26:01;;;;;;;;;;;;;;;11.01;70.99;99358.78;5138633;27;32158;-78
2022/01/04 09:28:27;;;;;;;;;;;;;;;11.01;71.05;99370.88;5138634;27;26780;-78
2022/01/04 09:30:52;;;;;;;;;;;;;;;11.01;70.39;99363.13;5138856;27;26996;-78
2022/01/04 09:33:18;;;;;;;;;;;;;;;11.03;71.23;99356.09;5138663;27;26945;-78
2022/01/04 09:35:44;;;;;;;;;;;;;;;11.03;70.98;99350.94;5138808;27;26975;-78
2022/01/04 09:38:09;;;;;;;;;;;;;;;11.07;71.29;99347.28;5138473;27;27684;-78
2022/01/04 09:40:35;;;;;;;;;;;;;;;11.11;71.24;99333.31;5138845;27;26876;-79
2022/01/04 09:43:03;;;;;;;;;;;;;;;11.16;71.23;99341.69;5138179;27;26941;-79
2022/01/04 09:45:28;;;;;;;;;;;;;;;11.22;70.57;99336.19;5140634;27;26873;-78
2022/01/04 09:47:53;;;;;;;;;;;;;;;11.26;70.18;99342.88;5139745;27;26886;-78
2022/01/04 09:50:18;;;;;;;;;;;;;;;11.32;71.53;99342.53;5138575;27;26676;-78
2022/01/04 09:52:46;;;;;;;;;;;;;;;11.35;70.22;99342.41;5141559;27;27330;-79
2022/01/04 09:55:13;;;;;;;;;;;;;;;11.35;70.80;99342.41;5138705;27;26559;-78
2022/01/04 09:57:39;;;;;;;;;;;;;;;11.35;70.68;99337.25;5137938;27;26897;-79
2022/01/04 10:00:05;;;;;;;;;;;;;;;11.35;70.35;99342.41;5137523;27;27003;-79
2022/01/04 10:02:31;;;;;;;;;;;;;;;11.34;70.26;99337.31;5138717;27;26752;-79
2022/01/04 10:05:14;;;;;;;;;;;;;;;11.31;70.31;99335.72;5140301;27;26783;-78
2022/01/04 10:07:40;;;;;;;;;;;;;;;11.31;70.24;99320.22;5144361;27;26756;-78
2022/01/04 10:10:08;;;;;;;;;;;;;;;11.30;70.40;99317.69;5140769;27;26811;-78
2022/01/04 10:12:47;;;;;;;;;;;;;;;11.31;70.45;99315.06;5142531;27;28352;-78
2022/01/04 10:15:12;;;;;;;;;;;;;;;11.34;70.66;99304.53;5144186;27;26836;-78
2022/01/04 10:17:37;;;;;;;;;;;;;;;11.35;70.18;99311.38;5144093;27;56345;-77
2022/01/04 10:20:03;;;;;;;;;;;;;;;11.35;70.72;99308.81;5146824;27;48674;-78
2022/01/04 10:22:31;;;;;;;;;;;;;;;11.34;70.45;99303.69;5142497;27;27065;-78
2022/01/04 10:25:02;;;;;;;;;;;;;;;11.32;70.64;99296.00;5142790;27;26736;-78
2022/01/04 10:27:34;;;;;;;;;;;;;;;11.34;70.29;99306.28;5142374;27;26824;-78
2022/01/04 10:30:12;;;;;;;;;;;;;;;11.30;70.76;99302.19;5142726;27;26702;-78
2022/01/04 10:32:47;;;;;;;;;;;;;;;11.30;70.80;99303.03;5142524;27;26835;-78
2022/01/04 10:35:22;;;;;;;;;;;;;;;11.29;70.97;99301.34;5142269;27;26854;-78
2022/01/04 10:37:47;;;;;;;;;;;;;;;11.34;71.18;99299.38;5142315;27;26973;-78
2022/01/04 10:40:13;;;;;;;;;;;;;;;11.34;70.68;99289.03;5142075;27;26938;-78
2022/01/04 10:42:38;;;;;;;;;;;;;;;11.34;70.39;99283.88;5142328;27;28043;-78
2022/01/04 10:45:23;;;;;;;;;;;;;;;11.33;70.87;99302.88;5141175;27;53779;-79
2022/01/04 10:47:48;;;;;;;;;;;;;;;11.37;70.36;99304.38;5123632;27;27757;-79
2022/01/04 10:50:27;;;;;;;;;;;;;;;11.44;70.21;99295.38;5141879;27;34454;-79
2022/01/04 10:52:52;;;;;;;;;;;;;;;11.50;70.01;99289.91;5141613;27;26709;-78
2022/01/04 10:55:18;;;;;;;;;;;;;;;11.55;70.59;99290.47;5141571;27;26847;-79
2022/01/04 10:57:43;;;;;;;;;;;;;;;11.56;70.67;99286.97;5142081;27;27375;-79
2022/01/04 11:00:12;;;;;;;;;;;;;;;11.62;69.92;99283.25;5141088;27;53848;-78
2022/01/04 11:02:37;;;;;;;;;;;;;;;11.69;70.87;99294.09;5141976;27;27028;-78
2022/01/04 11:05:16;;;;;;;;;;;;;;;11.70;70.29;99285.44;5143704;27;52580;-79
2022/01/04 11:08:00;;;;;;;;;;;;;;;11.76;70.71;99279.94;5144523;27;28142;-78
2022/01/04 11:10:28;;;;;;;;;;;;;;;11.79;70.86;99274.59;5144836;27;26490;-78
2022/01/04 11:12:55;;;;;;;;;;;;;;;11.84;70.63;99273.44;5123606;27;27708;-79
2022/01/04 11:15:20;;;;;;;;;;;;;;;11.87;69.53;99275.03;5140765;27;27058;-78
2022/01/04 11:17:46;;;;;;;;;;;;;;;11.91;69.87;99261.84;5139842;27;57605;-79
2022/01/04 11:20:11;;;;;;;;;;;;;;;11.92;69.87;99263.47;5141557;27;26955;-79
2022/01/04 11:22:38;;;;;;;;;;;;;;;11.90;68.17;99261.91;5141320;27;26863;-79
2022/01/04 11:25:04;;;;;;;;;;;;;;;11.89;69.26;99270.59;5140814;27;26936;-78
2022/01/04 11:27:32;;;;;;;;;;;;;;;11.90;69.52;99277.44;5141032;27;27573;-78
2022/01/04 11:29:58;;;;;;;;;;;;;;;11.85;69.06;99279.44;5141419;27;26752;-78
2022/01/04 11:32:25;;;;;;;;;;;;;;;11.85;69.66;99274.25;5139877;27;26928;-79
2022/01/04 11:35:02;;;;;;;;;;;;;;;11.87;69.17;99290.53;5138933;27;26960;-78
2022/01/04 11:37:27;;;;;;;;;;;;;;;11.89;70.04;99286.09;5138358;27;27133;-78
2022/01/04 11:39:52;;;;;;;;;;;;;;;11.91;69.46;99284.28;5137733;27;27039;-78
2022/01/04 11:42:34;;;;;;;;;;;;;;;11.90;69.35;99282.59;5138487;27;26837;-79
2022/01/04 11:45:00;;;;;;;;;;;;;;;11.88;68.38;99281.88;5138679;27;27101;-78
2022/01/04 11:47:28;;;;;;;;;;;;;;;11.86;68.88;99257.81;5138879;27;28917;-78
2022/01/04 11:50:05;;;;;;;;;;;;;;;11.86;69.42;99256.06;5138946;27;27018;-78
2022/01/04 11:52:41;;;;;;;;;;;;;;;11.88;68.07;99248.25;5138833;27;26820;-78
2022/01/04 11:55:21;;;;;;;;;;;;;;;11.87;68.18;99257.75;5138583;27;26935;-78
2022/01/04 11:57:47;;;;;;;;;;;;;;;11.86;68.47;99250.06;5139208;27;27112;-78
2022/01/04 12:00:25;;;;;;;;;;;;;;;11.85;68.20;99254.41;5138782;27;26936;-78
2022/01/04 12:03:02;;;;;;;;;;;;;;;11.85;68.70;99269.06;5139206;27;26787;-79
2022/01/04 12:05:27;;;;;;;;;;;;;;;11.88;68.98;99261.19;5140098;27;26931;-78
2022/01/04 12:07:53;;;;;;;;;;;;;;;11.89;67.64;99260.22;5140698;27;26787;-78
2022/01/04 12:10:18;;;;;;;;;;;;;;;11.84;67.96;99277.78;5139584;27;26938;-78
2022/01/04 12:13:01;;;;;;;;;;;;;;;11.80;68.36;99271.09;5138067;27;56153;-77
2022/01/04 12:15:32;;;;;;;;;;;;;;;11.71;68.30;99266.38;5139031;27;26912;-77
2022/01/04 12:17:57;;;;;;;;;;;;;;;11.63;68.23;99277.97;5141154;27;27583;-78
2022/01/04 12:20:40;;;;;;;;;;;;;;;11.53;68.49;99266.47;5141161;27;26899;-78
2022/01/04 12:23:27;;;;;;;;;;;;;;;11.33;69.25;99287.34;5140527;27;27012;-79
2022/01/04 12:26:04;;;;;;;;;;;;;;;11.05;70.13;99287.13;5142811;27;26947;-78
2022/01/04 12:28:30;;;;;;;;;;;;;;;10.84;70.89;99303.69;5144285;27;26753;-80
2022/01/04 12:31:15;;;;;;;;;;;;;;;10.69;70.22;99310.44;5143614;27;26788;-80
2022/01/04 12:33:41;;;;;;;;;;;;;;;10.60;70.15;99322.09;5144047;27;27023;-80
2022/01/04 12:36:07;;;;;;;;;;;;;;;10.54;70.16;99327.53;5142311;27;26788;-79
2022/01/04 12:38:33;;;;;;;;;;;;;;;10.49;70.95;99328.69;5143248;27;27918;-79
2022/01/04 12:40:58;;;;;;;;;;;;;;;10.45;71.23;99316.84;5142757;27;26796;-79
2022/01/04 12:43:24;;;;;;;;;;;;;;;10.43;70.73;99319.47;5142280;27;26800;-79
2022/01/04 12:45:59;;;;;;;;;;;;;;;10.49;70.54;99311.44;5141989;27;27043;-80
2022/01/04 12:48:42;;;;;;;;;;;;;;;10.51;71.41;99322.53;5141189;27;27034;-78
2022/01/04 12:51:27;;;;;;;;;;;;;;;10.52;70.98;99324.19;5141263;27;26939;-79
2022/01/04 12:53:53;;;;;;;;;;;;;;;10.48;70.14;99333.00;5139700;27;27012;-78
2022/01/04 12:56:18;;;;;;;;;;;;;;;10.44;70.75;99331.47;5140244;27;27085;-78
2022/01/04 12:58:44;;;;;;;;;;;;;;;10.36;70.25;99333.59;5141207;27;27685;-78